sensor_id;sensor_type;location;lat;lon;timestamp;pressure;altitude;pressure_sealevel;temperature
48854;BMP280;34673;52.808;17.856;2022-07-10T00:02:05;100420.50;;;15.57
48854;BMP280;34673;52.808;17.856;2022-07-10T00:04:32;100413.69;;;15.52
48854;BMP280;34673;52.808;17.856;2022-07-10T00:07:00;100413.69;;;15.52
48854;BMP280;34673;52.808;17.856;2022-07-10T00:09:28;100401.63;;;15.48
48854;BMP280;34673;52.808;17.856;2022-07-10T00:11:56;100418.03;;;15.52
48854;BMP280;34673;52.808;17.856;2022-07-10T00:14:23;100419.88;;;15.48
48854;BMP280;34673;52.808;17.856;2022-07-10T00:16:50;100413.97;;;15.42
48854;BMP280;34673;52.808;17.856;2022-07-10T00:19:17;100405.28;;;15.41
48854;BMP280;34673;52.808;17.856;2022-07-10T00:21:44;100407.97;;;15.38
48854;BMP280;34673;52.808;17.856;2022-07-10T00:24:11;100409.84;;;15.33
48854;BMP280;34673;52.808;17.856;2022-07-10T00:26:39;100402.19;;;15.27
48854;BMP280;34673;52.808;17.856;2022-07-10T00:29:06;100409.19;;;15.25
48854;BMP280;34673;52.808;17.856;2022-07-10T00:31:33;100405.78;;;15.23
48854;BMP280;34673;52.808;17.856;2022-07-10T00:34:00;100400.59;;;15.23
48854;BMP280;34673;52.808;17.856;2022-07-10T00:36:27;100398.84;;;15.22
48854;BMP280;34673;52.808;17.856;2022-07-10T00:38:54;100383.31;;;15.19
48854;BMP280;34673;52.808;17.856;2022-07-10T00:41:21;100393.72;;;15.19
48854;BMP280;34673;52.808;17.856;2022-07-10T00:43:59;100386.81;;;15.18
48854;BMP280;34673;52.808;17.856;2022-07-10T00:46:28;100386.81;;;15.18
48854;BMP280;34673;52.808;17.856;2022-07-10T00:48:56;100380.81;;;15.14
48854;BMP280;34673;52.808;17.856;2022-07-10T00:51:26;100383.47;;;15.13
48854;BMP280;34673;52.808;17.856;2022-07-10T00:53:53;100381.75;;;15.12
48854;BMP280;34673;52.808;17.856;2022-07-10T00:56:22;100380.97;;;15.08
48854;BMP280;34673;52.808;17.856;2022-07-10T00:58:50;100378.47;;;15.03
48854;BMP280;34673;52.808;17.856;2022-07-10T01:01:18;100375.19;;;14.98
48854;BMP280;34673;52.808;17.856;2022-07-10T01:03:46;100382.00;;;15.02
48854;BMP280;34673;52.808;17.856;2022-07-10T01:06:14;100385.50;;;15.01
48854;BMP280;34673;52.808;17.856;2022-07-10T01:08:43;100383.78;;;15.00
48854;BMP280;34673;52.808;17.856;2022-07-10T01:11:11;100380.38;;;14.98
48854;BMP280;34673;52.808;17.856;2022-07-10T01:13:39;100387.31;;;14.98
48854;BMP280;34673;52.808;17.856;2022-07-10T01:16:06;100385.66;;;14.95
48854;BMP280;34673;52.808;17.856;2022-07-10T01:18:34;100392.53;;;14.98
48854;BMP280;34673;52.808;17.856;2022-07-10T01:21:01;100385.59;;;14.98
48854;BMP280;34673;52.808;17.856;2022-07-10T01:23:28;100382.09;;;14.99
48854;BMP280;34673;52.808;17.856;2022-07-10T01:25:56;100385.59;;;14.98
48854;BMP280;34673;52.808;17.856;2022-07-10T01:28:24;100383.78;;;15.00
48854;BMP280;34673;52.808;17.856;2022-07-10T01:30:54;100392.50;;;14.99
48854;BMP280;34673;52.808;17.856;2022-07-10T01:33:21;100383.00;;;14.98
48854;BMP280;34673;52.808;17.856;2022-07-10T01:35:49;100366.69;;;14.90
48854;BMP280;34673;52.808;17.856;2022-07-10T01:38:16;100373.59;;;14.91
48854;BMP280;34673;52.808;17.856;2022-07-10T01:40:43;100375.38;;;14.89
48854;BMP280;34673;52.808;17.856;2022-07-10T01:43:11;100370.19;;;14.89
48854;BMP280;34673;52.808;17.856;2022-07-10T01:45:38;100370.25;;;14.88
48854;BMP280;34673;52.808;17.856;2022-07-10T01:48:05;100371.25;;;14.82
48854;BMP280;34673;52.808;17.856;2022-07-10T01:50:33;100368.66;;;14.82
48854;BMP280;34673;52.808;17.856;2022-07-10T01:53:00;100365.31;;;14.77
48854;BMP280;34673;52.808;17.856;2022-07-10T01:55:27;100363.66;;;14.73
48854;BMP280;34673;52.808;17.856;2022-07-10T01:57:54;100358.50;;;14.71
48854;BMP280;34673;52.808;17.856;2022-07-10T02:00:21;100364.59;;;14.70
48854;BMP280;34673;52.808;17.856;2022-07-10T02:02:48;100363.97;;;14.60
48854;BMP280;34673;52.808;17.856;2022-07-10T02:05:36;100365.91;;;14.52
48854;BMP280;34673;52.808;17.856;2022-07-10T02:08:04;100372.84;;;14.50
48854;BMP280;34673;52.808;17.856;2022-07-10T02:10:33;100367.81;;;14.44
48854;BMP280;34673;52.808;17.856;2022-07-10T02:13:00;100369.66;;;14.39
48854;BMP280;34673;52.808;17.856;2022-07-10T02:15:27;100373.13;;;14.38
48854;BMP280;34673;52.808;17.856;2022-07-10T02:17:55;100368.97;;;14.31
48854;BMP280;34673;52.808;17.856;2022-07-10T02:20:22;100374.28;;;14.26
48854;BMP280;34673;52.808;17.856;2022-07-10T02:22:49;100364.88;;;14.21
48854;BMP280;34673;52.808;17.856;2022-07-10T02:25:16;100374.50;;;14.17
48854;BMP280;34673;52.808;17.856;2022-07-10T02:27:44;100362.34;;;14.17
48854;BMP280;34673;52.808;17.856;2022-07-10T02:30:11;100357.22;;;14.14
48854;BMP280;34673;52.808;17.856;2022-07-10T02:32:38;100361.59;;;14.12
48854;BMP280;34673;52.808;17.856;2022-07-10T02:35:06;100358.16;;;14.10
48854;BMP280;34673;52.808;17.856;2022-07-10T02:37:33;100352.97;;;14.10
48854;BMP280;34673;52.808;17.856;2022-07-10T02:40:00;100358.16;;;14.10
48854;BMP280;34673;52.808;17.856;2022-07-10T02:42:27;100361.75;;;14.06
48854;BMP280;34673;52.808;17.856;2022-07-10T02:44:54;100354.72;;;14.08
48854;BMP280;34673;52.808;17.856;2022-07-10T02:47:22;100349.41;;;14.14
48854;BMP280;34673;52.808;17.856;2022-07-10T02:49:49;100353.69;;;14.17
48854;BMP280;34673;52.808;17.856;2022-07-10T02:52:16;100351.09;;;14.17
48854;BMP280;34673;52.808;17.856;2022-07-10T02:54:43;100345.00;;;14.16
48854;BMP280;34673;52.808;17.856;2022-07-10T02:57:11;100345.91;;;14.15
48854;BMP280;34673;52.808;17.856;2022-07-10T02:59:38;100348.53;;;14.14
48854;BMP280;34673;52.808;17.856;2022-07-10T03:02:05;100349.34;;;14.17
48854;BMP280;34673;52.808;17.856;2022-07-10T03:04:33;100345.97;;;14.12
48854;BMP280;34673;52.808;17.856;2022-07-10T03:07:00;100345.22;;;14.09
48854;BMP280;34673;52.808;17.856;2022-07-10T03:09:27;100347.81;;;14.07
48854;BMP280;34673;52.808;17.856;2022-07-10T03:11:54;100349.69;;;14.02
48854;BMP280;34673;52.808;17.856;2022-07-10T03:14:21;100347.25;;;13.94
48854;BMP280;34673;52.808;17.856;2022-07-10T03:16:49;100347.25;;;13.94
48854;BMP280;34673;52.808;17.856;2022-07-10T03:19:16;100343.78;;;13.95
48854;BMP280;34673;52.808;17.856;2022-07-10T03:21:43;100351.53;;;13.97
48854;BMP280;34673;52.808;17.856;2022-07-10T03:24:11;100343.72;;;13.97
48854;BMP280;34673;52.808;17.856;2022-07-10T03:26:39;100348.97;;;13.95
48854;BMP280;34673;52.808;17.856;2022-07-10T03:29:06;100341.03;;;14.00
48854;BMP280;34673;52.808;17.856;2022-07-10T03:31:33;100342.69;;;14.04
48854;BMP280;34673;52.808;17.856;2022-07-10T03:34:00;100349.59;;;14.05
48854;BMP280;34673;52.808;17.856;2022-07-10T03:36:27;100337.66;;;13.98
48854;BMP280;34673;52.808;17.856;2022-07-10T03:38:55;100337.69;;;13.95
48854;BMP280;34673;52.808;17.856;2022-07-10T03:41:22;100342.84;;;13.98
48854;BMP280;34673;52.808;17.856;2022-07-10T03:43:49;100336.75;;;13.97
48854;BMP280;34673;52.808;17.856;2022-07-10T03:46:16;100337.66;;;13.98
48854;BMP280;34673;52.808;17.856;2022-07-10T03:48:43;100335.03;;;13.98
48854;BMP280;34673;52.808;17.856;2022-07-10T03:51:11;100335.91;;;13.97
48854;BMP280;34673;52.808;17.856;2022-07-10T03:53:38;100331.63;;;13.96
48854;BMP280;34673;52.808;17.856;2022-07-10T03:56:05;100329.09;;;13.93
48854;BMP280;34673;52.808;17.856;2022-07-10T03:58:33;100332.44;;;13.98
48854;BMP280;34673;52.808;17.856;2022-07-10T04:01:00;100334.13;;;13.99
48854;BMP280;34673;52.808;17.856;2022-07-10T04:03:27;100334.97;;;14.01
48854;BMP280;34673;52.808;17.856;2022-07-10T04:05:54;100322.22;;;13.89
48854;BMP280;34673;52.808;17.856;2022-07-10T04:08:21;100331.56;;;13.97
48854;BMP280;34673;52.808;17.856;2022-07-10T04:10:48;100340.16;;;14.01
48854;BMP280;34673;52.808;17.856;2022-07-10T04:13:15;100342.69;;;14.04
48854;BMP280;34673;52.808;17.856;2022-07-10T04:15:43;100325.38;;;14.03
48854;BMP280;34673;52.808;17.856;2022-07-10T04:18:10;100326.25;;;14.04
48854;BMP280;34673;52.808;17.856;2022-07-10T04:20:37;100327.94;;;14.05
48854;BMP280;34673;52.808;17.856;2022-07-10T04:23:04;100339.13;;;14.08
48854;BMP280;34673;52.808;17.856;2022-07-10T04:25:31;100331.19;;;14.14
48854;BMP280;34673;52.808;17.856;2022-07-10T04:27:58;100336.44;;;14.13
48854;BMP280;34673;52.808;17.856;2022-07-10T04:30:26;100334.72;;;14.12
48854;BMP280;34673;52.808;17.856;2022-07-10T04:32:53;100339.00;;;14.14
48854;BMP280;34673;52.808;17.856;2022-07-10T04:35:20;100332.00;;;14.16
48854;BMP280;34673;52.808;17.856;2022-07-10T04:37:47;100324.19;;;14.16
48854;BMP280;34673;52.808;17.856;2022-07-10T04:40:14;100331.97;;;14.19
48854;BMP280;34673;52.808;17.856;2022-07-10T04:42:41;100334.56;;;14.19
48854;BMP280;34673;52.808;17.856;2022-07-10T04:45:09;100321.66;;;14.13
48854;BMP280;34673;52.808;17.856;2022-07-10T04:47:36;100327.69;;;14.15
48854;BMP280;34673;52.808;17.856;2022-07-10T04:50:04;100326.94;;;14.10
48854;BMP280;34673;52.808;17.856;2022-07-10T04:52:31;100326.16;;;14.07
48854;BMP280;34673;52.808;17.856;2022-07-10T04:54:58;100325.25;;;14.09
48854;BMP280;34673;52.808;17.856;2022-07-10T04:57:25;100323.16;;;14.24
48854;BMP280;34673;52.808;17.856;2022-07-10T04:59:53;100326.28;;;14.38
48854;BMP280;34673;52.808;17.856;2022-07-10T05:02:20;100324.44;;;14.43
48854;BMP280;34673;52.808;17.856;2022-07-10T05:04:47;100325.16;;;14.50
48854;BMP280;34673;52.808;17.856;2022-07-10T05:07:14;100324.25;;;14.52
48854;BMP280;34673;52.808;17.856;2022-07-10T05:09:42;100314.69;;;14.51
48854;BMP280;34673;52.808;17.856;2022-07-10T05:12:09;100319.63;;;14.63
48854;BMP280;34673;52.808;17.856;2022-07-10T05:14:36;100320.28;;;14.72
48854;BMP280;34673;52.808;17.856;2022-07-10T05:17:03;100320.13;;;14.78
48854;BMP280;34673;52.808;17.856;2022-07-10T05:19:30;100318.00;;;14.92
48854;BMP280;34673;52.808;17.856;2022-07-10T05:21:57;100316.91;;;15.01
48854;BMP280;34673;52.808;17.856;2022-07-10T05:24:25;100313.34;;;15.05
48854;BMP280;34673;52.808;17.856;2022-07-10T05:26:52;100317.69;;;15.04
48854;BMP280;34673;52.808;17.856;2022-07-10T05:29:19;100314.34;;;14.99
48854;BMP280;34673;52.808;17.856;2022-07-10T05:31:46;100307.34;;;15.01
48854;BMP280;34673;52.808;17.856;2022-07-10T05:34:14;100307.00;;;15.14
48854;BMP280;34673;52.808;17.856;2022-07-10T05:36:41;100307.75;;;15.19
48854;BMP280;34673;52.808;17.856;2022-07-10T05:39:08;100306.78;;;15.23
48854;BMP280;34673;52.808;17.856;2022-07-10T05:41:35;100311.06;;;15.24
48854;BMP280;34673;52.808;17.856;2022-07-10T05:44:03;100303.16;;;15.27
48854;BMP280;34673;52.808;17.856;2022-07-10T05:46:30;100299.41;;;15.37
48854;BMP280;34673;52.808;17.856;2022-07-10T05:48:57;100301.00;;;15.41
48854;BMP280;34673;52.808;17.856;2022-07-10T05:51:24;100306.41;;;15.35
48854;BMP280;34673;52.808;17.856;2022-07-10T05:54:10;100314.22;;;15.35
48854;BMP280;34673;52.808;17.856;2022-07-10T05:56:37;100316.84;;;15.35
48854;BMP280;34673;52.808;17.856;2022-07-10T05:59:04;100318.59;;;15.35
48854;BMP280;34673;52.808;17.856;2022-07-10T06:01:31;100310.78;;;15.35
48854;BMP280;34673;52.808;17.856;2022-07-10T06:03:59;100311.44;;;15.41
48854;BMP280;34673;52.808;17.856;2022-07-10T06:06:26;100312.88;;;15.51
48854;BMP280;34673;52.808;17.856;2022-07-10T06:08:53;100310.72;;;15.66
48854;BMP280;34673;52.808;17.856;2022-07-10T06:11:20;100307.16;;;15.70
48854;BMP280;34673;52.808;17.856;2022-07-10T06:13:47;100315.91;;;15.69
48854;BMP280;34673;52.808;17.856;2022-07-10T06:16:14;100319.34;;;15.68
48854;BMP280;34673;52.808;17.856;2022-07-10T06:18:42;100316.03;;;15.63
48854;BMP280;34673;52.808;17.856;2022-07-10T06:21:10;100317.75;;;15.64
48854;BMP280;34673;52.808;17.856;2022-07-10T06:23:37;100312.53;;;15.64
48854;BMP280;34673;52.808;17.856;2022-07-10T06:26:04;100304.66;;;15.65
48854;BMP280;34673;52.808;17.856;2022-07-10T06:28:34;100305.47;;;15.67
48854;BMP280;34673;52.808;17.856;2022-07-10T06:31:01;100301.66;;;15.79
48854;BMP280;34673;52.808;17.856;2022-07-10T06:33:29;100305.56;;;15.94
48854;BMP280;34673;52.808;17.856;2022-07-10T06:35:56;100300.91;;;16.04
48854;BMP280;34673;52.808;17.856;2022-07-10T06:38:23;100305.66;;;16.19
48854;BMP280;34673;52.808;17.856;2022-07-10T06:40:51;100306.28;;;16.26
48854;BMP280;34673;52.808;17.856;2022-07-10T06:43:19;100290.81;;;16.21
48854;BMP280;34673;52.808;17.856;2022-07-10T06:45:46;100305.44;;;16.25
48854;BMP280;34673;52.808;17.856;2022-07-10T06:48:14;100305.28;;;16.31
48854;BMP280;34673;52.808;17.856;2022-07-10T06:50:42;100301.84;;;16.56
48854;BMP280;34673;52.808;17.856;2022-07-10T06:53:09;100299.78;;;16.91
48854;BMP280;34673;52.808;17.856;2022-07-10T06:55:37;100303.84;;;16.99
48854;BMP280;34673;52.808;17.856;2022-07-10T06:58:05;100296.16;;;16.95
48854;BMP280;34673;52.808;17.856;2022-07-10T07:00:32;100306.75;;;16.92
48854;BMP280;34673;52.808;17.856;2022-07-10T07:02:59;100304.53;;;16.79
48854;BMP280;34673;52.808;17.856;2022-07-10T07:05:27;100305.13;;;16.88
48854;BMP280;34673;52.808;17.856;2022-07-10T07:07:54;100309.78;;;17.04
48854;BMP280;34673;52.808;17.856;2022-07-10T07:10:21;100296.38;;;17.14
48854;BMP280;34673;52.808;17.856;2022-07-10T07:12:48;100305.88;;;17.16
48854;BMP280;34673;52.808;17.856;2022-07-10T07:15:16;100294.81;;;17.32
48854;BMP280;34673;52.808;17.856;2022-07-10T07:17:44;100302.81;;;17.52
48854;BMP280;34673;52.808;17.856;2022-07-10T07:20:25;100306.22;;;17.54
48854;BMP280;34673;52.808;17.856;2022-07-10T07:23:11;100308.03;;;17.52
48854;BMP280;34673;52.808;17.856;2022-07-10T07:25:40;100302.06;;;17.48
48854;BMP280;34673;52.808;17.856;2022-07-10T07:28:11;100301.28;;;17.46
48854;BMP280;34673;52.808;17.856;2022-07-10T07:30:38;100303.16;;;17.43
48854;BMP280;34673;52.808;17.856;2022-07-10T07:33:05;100309.84;;;17.26
48854;BMP280;34673;52.808;17.856;2022-07-10T07:35:33;100303.13;;;17.19
48854;BMP280;34673;52.808;17.856;2022-07-10T07:38:01;100314.59;;;17.15
48854;BMP280;34673;52.808;17.856;2022-07-10T07:40:29;100314.00;;;17.07
48854;BMP280;34673;52.808;17.856;2022-07-10T07:42:56;100313.25;;;17.05
48854;BMP280;34673;52.808;17.856;2022-07-10T07:45:25;100316.00;;;17.00
48854;BMP280;34673;52.808;17.856;2022-07-10T07:47:54;100318.47;;;17.05
48854;BMP280;34673;52.808;17.856;2022-07-10T07:50:27;100304.16;;;17.39
48854;BMP280;34673;52.808;17.856;2022-07-10T07:52:54;100299.06;;;17.59
48854;BMP280;34673;52.808;17.856;2022-07-10T07:55:22;100304.03;;;17.65
48854;BMP280;34673;52.808;17.856;2022-07-10T07:57:55;100305.00;;;17.63
48854;BMP280;34673;52.808;17.856;2022-07-10T08:00:24;100306.34;;;17.51
48854;BMP280;34673;52.808;17.856;2022-07-10T08:02:52;100302.44;;;17.61
48854;BMP280;34673;52.808;17.856;2022-07-10T08:05:20;100310.69;;;17.74
48854;BMP280;34673;52.808;17.856;2022-07-10T08:07:53;100304.25;;;17.83
48854;BMP280;34673;52.808;17.856;2022-07-10T08:10:23;100302.56;;;18.26
48854;BMP280;34673;52.808;17.856;2022-07-10T08:12:50;100303.47;;;18.67
48854;BMP280;34673;52.808;17.856;2022-07-10T08:15:20;100293.06;;;18.66
48854;BMP280;34673;52.808;17.856;2022-07-10T08:17:52;100297.72;;;18.37
48854;BMP280;34673;52.808;17.856;2022-07-10T08:20:20;100303.72;;;17.97
48854;BMP280;34673;52.808;17.856;2022-07-10T08:22:48;100309.28;;;17.65
48854;BMP280;34673;52.808;17.856;2022-07-10T08:25:21;100306.47;;;17.48
48854;BMP280;34673;52.808;17.856;2022-07-10T08:27:49;100305.09;;;17.38
48854;BMP280;34673;52.808;17.856;2022-07-10T08:30:17;100304.13;;;17.40
48854;BMP280;34673;52.808;17.856;2022-07-10T08:32:44;100304.03;;;17.42
48854;BMP280;34673;52.808;17.856;2022-07-10T08:35:11;100302.91;;;17.49
48854;BMP280;34673;52.808;17.856;2022-07-10T08:37:44;100303.91;;;17.68
48854;BMP280;34673;52.808;17.856;2022-07-10T08:40:14;100301.19;;;17.95
48854;BMP280;34673;52.808;17.856;2022-07-10T08:42:42;100293.16;;;18.00
48854;BMP280;34673;52.808;17.856;2022-07-10T08:45:11;100299.59;;;17.91
48854;BMP280;34673;52.808;17.856;2022-07-10T08:47:40;100293.09;;;17.78
48854;BMP280;34673;52.808;17.856;2022-07-10T08:50:23;100303.56;;;17.78
48854;BMP280;34673;52.808;17.856;2022-07-10T08:53:01;100291.41;;;17.77
48854;BMP280;34673;52.808;17.856;2022-07-10T08:55:31;100297.69;;;17.72
48854;BMP280;34673;52.808;17.856;2022-07-10T08:57:59;100293.47;;;17.68
48854;BMP280;34673;52.808;17.856;2022-07-10T09:00:26;100301.31;;;17.68
48854;BMP280;34673;52.808;17.856;2022-07-10T09:02:54;100301.31;;;17.68
48854;BMP280;34673;52.808;17.856;2022-07-10T09:05:23;100300.28;;;17.72
48854;BMP280;34673;52.808;17.856;2022-07-10T09:07:52;100294.19;;;17.72
48854;BMP280;34673;52.808;17.856;2022-07-10T09:10:24;100298.56;;;17.71
48854;BMP280;34673;52.808;17.856;2022-07-10T09:12:54;100305.63;;;17.69
48854;BMP280;34673;52.808;17.856;2022-07-10T09:15:23;100293.47;;;17.68
48854;BMP280;34673;52.808;17.856;2022-07-10T09:17:52;100299.38;;;17.73
48854;BMP280;34673;52.808;17.856;2022-07-10T09:20:38;100300.88;;;18.03
48854;BMP280;34673;52.808;17.856;2022-07-10T09:23:16;100299.47;;;18.58
48854;BMP280;34673;52.808;17.856;2022-07-10T09:25:48;100292.44;;;18.81
48854;BMP280;34673;52.808;17.856;2022-07-10T09:28:18;100299.84;;;18.70
48854;BMP280;34673;52.808;17.856;2022-07-10T09:30:46;100292.25;;;18.64
48854;BMP280;34673;52.808;17.856;2022-07-10T09:33:24;100299.06;;;18.47
48854;BMP280;34673;52.808;17.856;2022-07-10T09:36:15;100302.16;;;18.14
48854;BMP280;34673;52.808;17.856;2022-07-10T09:41:30;100308.94;;;17.51
48854;BMP280;34673;52.808;17.856;2022-07-10T09:46:45;100317.22;;;17.15
48854;BMP280;34673;52.808;17.856;2022-07-10T09:49:13;100320.06;;;17.09
48854;BMP280;34673;52.808;17.856;2022-07-10T09:51:45;100322.09;;;17.01
48854;BMP280;34673;52.808;17.856;2022-07-10T09:54:15;100316.13;;;16.97
48854;BMP280;34673;52.808;17.856;2022-07-10T09:56:46;100315.38;;;16.94
48854;BMP280;34673;52.808;17.856;2022-07-10T09:59:16;100318.88;;;16.93
48854;BMP280;34673;52.808;17.856;2022-07-10T10:01:44;100322.31;;;16.95
48854;BMP280;34673;52.808;17.856;2022-07-10T10:04:14;100313.34;;;17.02
48854;BMP280;34673;52.808;17.856;2022-07-10T10:06:42;100313.00;;;17.11
48854;BMP280;34673;52.808;17.856;2022-07-10T10:12:05;100307.09;;;17.53
48854;BMP280;34673;52.808;17.856;2022-07-10T10:14:34;100299.84;;;17.85
48854;BMP280;34673;52.808;17.856;2022-07-10T10:17:03;100297.88;;;18.12
48854;BMP280;34673;52.808;17.856;2022-07-10T10:19:33;100310.69;;;18.20
48854;BMP280;34673;52.808;17.856;2022-07-10T10:22:21;100300.06;;;18.23
48854;BMP280;34673;52.808;17.856;2022-07-10T10:24:50;100306.91;;;18.27
48854;BMP280;34673;52.808;17.856;2022-07-10T10:27:19;100303.38;;;18.28
48854;BMP280;34673;52.808;17.856;2022-07-10T10:29:48;100306.91;;;18.27
48854;BMP280;34673;52.808;17.856;2022-07-10T10:32:15;100306.28;;;18.20
48854;BMP280;34673;52.808;17.856;2022-07-10T10:34:45;100302.03;;;18.17
48854;BMP280;34673;52.808;17.856;2022-07-10T10:39:55;100303.97;;;18.12
48854;BMP280;34673;52.808;17.856;2022-07-10T10:42:40;100311.16;;;18.07
48854;BMP280;34673;52.808;17.856;2022-07-10T10:50:53;100316.38;;;18.07
48854;BMP280;34673;52.808;17.856;2022-07-10T10:53:28;100318.56;;;18.18
48854;BMP280;34673;52.808;17.856;2022-07-10T10:58:38;100321.69;;;18.28
48854;BMP280;34673;52.808;17.856;2022-07-10T11:01:24;100317.38;;;18.27
48854;BMP280;34673;52.808;17.856;2022-07-10T11:12:03;100317.59;;;18.21
48854;BMP280;34673;52.808;17.856;2022-07-10T11:14:52;100313.97;;;18.25
48854;BMP280;34673;52.808;17.856;2022-07-10T11:17:26;100312.00;;;18.30
48854;BMP280;34673;52.808;17.856;2022-07-10T11:19:54;100315.16;;;18.38
48854;BMP280;34673;52.808;17.856;2022-07-10T11:24:55;100305.22;;;18.46
48854;BMP280;34673;52.808;17.856;2022-07-10T11:27:36;100309.41;;;18.50
48854;BMP280;34673;52.808;17.856;2022-07-10T11:30:09;100299.72;;;18.52
48854;BMP280;34673;52.808;17.856;2022-07-10T11:32:37;100302.09;;;18.58
48854;BMP280;34673;52.808;17.856;2022-07-10T11:35:06;100298.28;;;18.66
48854;BMP280;34673;52.808;17.856;2022-07-10T11:37:51;100298.03;;;18.72
48854;BMP280;34673;52.808;17.856;2022-07-10T11:40:20;100297.69;;;18.81
48854;BMP280;34673;52.808;17.856;2022-07-10T11:42:56;100295.44;;;18.92
48854;BMP280;34673;52.808;17.856;2022-07-10T11:45:30;100282.84;;;19.00
48854;BMP280;34673;52.808;17.856;2022-07-10T11:47:59;100288.41;;;19.32
48854;BMP280;34673;52.808;17.856;2022-07-10T11:50:27;100273.34;;;19.75
48854;BMP280;34673;52.808;17.856;2022-07-10T11:53:01;100265.97;;;20.20
48854;BMP280;34673;52.808;17.856;2022-07-10T11:55:29;100271.66;;;20.45
48854;BMP280;34673;52.808;17.856;2022-07-10T11:58:18;100274.38;;;20.26
48854;BMP280;34673;52.808;17.856;2022-07-10T12:01:03;100277.22;;;19.85
48854;BMP280;34673;52.808;17.856;2022-07-10T12:03:34;100323.56;;;19.28
48854;BMP280;34673;52.808;17.856;2022-07-10T12:06:05;100320.56;;;18.55
48854;BMP280;34673;52.808;17.856;2022-07-10T12:08:45;100327.22;;;17.98
48854;BMP280;34673;52.808;17.856;2022-07-10T12:11:15;100335.47;;;17.64
48854;BMP280;34673;52.808;17.856;2022-07-10T12:13:45;100333.03;;;17.36
48854;BMP280;34673;52.808;17.856;2022-07-10T12:16:13;100344.16;;;17.17
48854;BMP280;34673;52.808;17.856;2022-07-10T12:18:41;100347.50;;;16.96
48854;BMP280;34673;52.808;17.856;2022-07-10T12:21:12;100361.38;;;16.71
48854;BMP280;34673;52.808;17.856;2022-07-10T12:23:41;100356.75;;;16.53
48854;BMP280;34673;52.808;17.856;2022-07-10T12:26:10;100358.97;;;16.38
48854;BMP280;34673;52.808;17.856;2022-07-10T12:28:56;100356.78;;;16.25
48854;BMP280;34673;52.808;17.856;2022-07-10T12:31:27;100354.53;;;16.14
48854;BMP280;34673;52.808;17.856;2022-07-10T12:33:57;100366.00;;;16.08
48854;BMP280;34673;52.808;17.856;2022-07-10T12:39:13;100345.97;;;16.09
48854;BMP280;34673;52.808;17.856;2022-07-10T12:42:01;100357.97;;;16.14
48854;BMP280;34673;52.808;17.856;2022-07-10T12:44:34;100356.25;;;16.15
48854;BMP280;34673;52.808;17.856;2022-07-10T12:47:12;100354.25;;;16.23
48854;BMP280;34673;52.808;17.856;2022-07-10T12:49:56;100352.31;;;16.28
48854;BMP280;34673;52.808;17.856;2022-07-10T12:52:28;100347.09;;;16.28
48854;BMP280;34673;52.808;17.856;2022-07-10T12:55:14;100352.06;;;16.37
48854;BMP280;34673;52.808;17.856;2022-07-10T12:57:52;100369.13;;;16.48
48854;BMP280;34673;52.808;17.856;2022-07-10T13:00:20;100368.94;;;16.54
48854;BMP280;34673;52.808;17.856;2022-07-10T13:02:49;100372.41;;;16.53
48854;BMP280;34673;52.808;17.856;2022-07-10T13:05:27;100379.38;;;16.54
48854;BMP280;34673;52.808;17.856;2022-07-10T13:08:23;100376.88;;;16.51
48854;BMP280;34673;52.808;17.856;2022-07-10T13:10:53;100377.03;;;16.45
48854;BMP280;34673;52.808;17.856;2022-07-10T13:13:21;100376.25;;;16.43
48854;BMP280;34673;52.808;17.856;2022-07-10T13:15:49;100388.50;;;16.40
48854;BMP280;34673;52.808;17.856;2022-07-10T13:18:19;100398.31;;;16.32
48854;BMP280;34673;52.808;17.856;2022-07-10T13:20:49;100389.06;;;16.22
48854;BMP280;34673;52.808;17.856;2022-07-10T13:23:25;100375.31;;;16.17
48854;BMP280;34673;52.808;17.856;2022-07-10T13:25:53;100364.84;;;16.17
48854;BMP280;34673;52.808;17.856;2022-07-10T13:28:20;100371.72;;;16.21
48854;BMP280;34673;52.808;17.856;2022-07-10T13:30:48;100354.94;;;16.28
48854;BMP280;34673;52.808;17.856;2022-07-10T13:33:15;100364.88;;;16.45
48854;BMP280;34673;52.808;17.856;2022-07-10T13:35:42;100373.09;;;16.59
48854;BMP280;34673;52.808;17.856;2022-07-10T13:38:10;100382.50;;;16.65
48854;BMP280;34673;52.808;17.856;2022-07-10T13:40:43;100380.59;;;16.70
48854;BMP280;34673;52.808;17.856;2022-07-10T13:43:11;100389.22;;;16.72
48854;BMP280;34673;52.808;17.856;2022-07-10T13:45:48;100378.69;;;16.75
48854;BMP280;34673;52.808;17.856;2022-07-10T13:48:15;100374.22;;;16.79
48854;BMP280;34673;52.808;17.856;2022-07-10T13:50:46;100375.06;;;16.79
48854;BMP280;34673;52.808;17.856;2022-07-10T13:53:15;100378.59;;;16.78
48854;BMP280;34673;52.808;17.856;2022-07-10T13:55:43;100376.00;;;16.78
48854;BMP280;34673;52.808;17.856;2022-07-10T13:58:11;100374.13;;;16.82
48854;BMP280;34673;52.808;17.856;2022-07-10T14:00:38;100367.94;;;16.84
48854;BMP280;34673;52.808;17.856;2022-07-10T14:03:06;100369.22;;;16.98
48854;BMP280;34673;52.808;17.856;2022-07-10T14:05:34;100361.97;;;17.06
48854;BMP280;34673;52.808;17.856;2022-07-10T14:08:01;100361.75;;;17.12
48854;BMP280;34673;52.808;17.856;2022-07-10T14:10:30;100352.81;;;17.19
48854;BMP280;34673;52.808;17.856;2022-07-10T14:12:57;100359.63;;;17.23
48854;BMP280;34673;52.808;17.856;2022-07-10T14:15:25;100353.97;;;17.36
48854;BMP280;34673;52.808;17.856;2022-07-10T14:17:52;100349.06;;;17.50
48854;BMP280;34673;52.808;17.856;2022-07-10T14:20:19;100351.38;;;17.59
48854;BMP280;34673;52.808;17.856;2022-07-10T14:22:47;100357.28;;;17.64
48854;BMP280;34673;52.808;17.856;2022-07-10T14:25:14;100364.13;;;17.67
48854;BMP280;34673;52.808;17.856;2022-07-10T14:27:42;100370.38;;;17.64
48854;BMP280;34673;52.808;17.856;2022-07-10T14:30:09;100386.16;;;17.61